Terminal Aerodrome Forecast
Issued by NWS

Home | Current Version | Previous Version | Text Only | Print | Product List | Glossary On
Versions: 1 2 3 4 5 6 7 8 9 10 11 12 13 14 15 16 17 18 19 20 21 22 23 24 25 26 27 28 29 30 31 32 33 34 35 36 37 38 39 40
000
FTAK31 PAFA 022339
TAFAOM
TAF
PAOM 022339Z 0300/0324 09015KT P6SM OVC040
     FM030500 10014KT 4SM -SN BKN025 OVC040
     FM030900 10012KT 2SM -SN BR BKN015 OVC025
     FM031200 12010KT 1SM -SN BR BKN007 OVC015
     FM031800 27007KT 2SM -SN BR OVC020=

USA.gov is the U.S. government's official web portal to all federal, state and local government web resources and services.